sensor_id;sensor_type;location;lat;lon;timestamp;noise_LAeq;noise_LA_min;noise_LA_max;noise_LA01;noise_LA95
67314;Laerm;57663;51.436;5.978;2023-02-12T18:20:59;37.87;36.12;43.02;;
67314;Laerm;57663;51.436;5.978;2023-02-12T18:21:10;37.34;36.03;39.33;;
67314;Laerm;57663;51.436;5.978;2023-02-12T18:21:21;37.38;36.30;38.74;;
67314;Laerm;57663;51.436;5.978;2023-02-12T18:21:31;37.83;35.82;39.59;;
67314;Laerm;57663;51.436;5.978;2023-02-12T18:21:43;38.01;36.39;41.88;;
67314;Laerm;57663;51.436;5.978;2023-02-12T18:21:54;39.49;37.08;42.93;;
67314;Laerm;57663;51.436;5.978;2023-02-12T18:22:04;48.72;40.74;57.84;;
67314;Laerm;57663;51.436;5.978;2023-02-12T18:22:15;47.74;39.60;59.89;;
67314;Laerm;57663;51.436;5.978;2023-02-12T18:22:25;54.45;42.25;63.61;;
67314;Laerm;57663;51.436;5.978;2023-02-12T18:22:35;40.30;37.68;44.75;;
67314;Laerm;57663;51.436;5.978;2023-02-12T18:22:46;38.38;36.68;40.46;;
67314;Laerm;57663;51.436;5.978;2023-02-12T18:22:56;37.73;36.23;39.59;;
67314;Laerm;57663;51.436;5.978;2023-02-12T18:23:06;37.79;36.30;39.61;;
67314;Laerm;57663;51.436;5.978;2023-02-12T18:23:17;38.66;37.07;40.37;;
67314;Laerm;57663;51.436;5.978;2023-02-12T18:23:27;40.46;37.29;46.17;;
67314;Laerm;57663;51.436;5.978;2023-02-12T18:23:38;43.72;40.17;47.21;;
67314;Laerm;57663;51.436;5.978;2023-02-12T18:23:48;42.89;37.16;47.27;;
67314;Laerm;57663;51.436;5.978;2023-02-12T18:23:59;38.74;37.19;47.61;;
67314;Laerm;57663;51.436;5.978;2023-02-12T18:24:09;41.21;37.14;45.51;;
67314;Laerm;57663;51.436;5.978;2023-02-12T18:24:20;41.74;37.60;46.62;;
67314;Laerm;57663;51.436;5.978;2023-02-12T18:24:30;38.63;37.03;40.33;;
67314;Laerm;57663;51.436;5.978;2023-02-12T18:24:43;37.82;36.44;39.19;;
67314;Laerm;57663;51.436;5.978;2023-02-12T18:24:54;41.39;36.04;57.16;;
67314;Laerm;57663;51.436;5.978;2023-02-12T18:25:06;38.35;35.94;49.10;;
67314;Laerm;57663;51.436;5.978;2023-02-12T18:25:17;46.70;36.99;66.79;;
67314;Laerm;57663;51.436;5.978;2023-02-12T18:25:27;47.13;37.32;66.41;;
67314;Laerm;57663;51.436;5.978;2023-02-12T18:25:41;40.63;37.32;43.84;;
67314;Laerm;57663;51.436;5.978;2023-02-12T18:25:51;40.64;37.93;45.86;;
67314;Laerm;57663;51.436;5.978;2023-02-12T18:26:10;40.35;37.58;43.29;;
67314;Laerm;57663;51.436;5.978;2023-02-12T18:26:21;40.71;38.56;44.76;;
67314;Laerm;57663;51.436;5.978;2023-02-12T18:26:31;69.31;41.66;78.37;;
67314;Laerm;57663;51.436;5.978;2023-02-12T18:26:42;71.47;67.31;75.41;;
67314;Laerm;57663;51.436;5.978;2023-02-12T18:26:52;66.88;45.99;71.96;;
67314;Laerm;57663;51.436;5.978;2023-02-12T18:27:03;42.45;38.07;48.43;;
67314;Laerm;57663;51.436;5.978;2023-02-12T18:27:14;39.07;37.63;40.48;;
67314;Laerm;57663;51.436;5.978;2023-02-12T18:27:24;40.93;36.99;48.20;;
67314;Laerm;57663;51.436;5.978;2023-02-12T18:27:34;48.89;39.07;56.84;;
67314;Laerm;57663;51.436;5.978;2023-02-12T18:27:45;41.06;36.37;61.05;;
67314;Laerm;57663;51.436;5.978;2023-02-12T18:27:55;37.83;36.33;39.56;;
67314;Laerm;57663;51.436;5.978;2023-02-12T18:28:05;38.01;36.12;39.50;;
67314;Laerm;57663;51.436;5.978;2023-02-12T18:28:16;37.90;36.25;39.53;;
67314;Laerm;57663;51.436;5.978;2023-02-12T18:28:26;38.61;36.77;40.46;;
67314;Laerm;57663;51.436;5.978;2023-02-12T18:28:36;38.00;36.64;39.36;;
67314;Laerm;57663;51.436;5.978;2023-02-12T18:28:47;38.07;36.34;39.77;;
67314;Laerm;57663;51.436;5.978;2023-02-12T18:28:57;43.14;37.94;49.50;;
67314;Laerm;57663;51.436;5.978;2023-02-12T18:29:08;48.96;38.33;59.30;;
67314;Laerm;57663;51.436;5.978;2023-02-12T18:29:19;48.60;38.21;61.35;;
67314;Laerm;57663;51.436;5.978;2023-02-12T18:29:29;47.41;38.79;54.05;;
67314;Laerm;57663;51.436;5.978;2023-02-12T18:29:39;40.43;38.67;42.26;;
67314;Laerm;57663;51.436;5.978;2023-02-12T18:29:50;43.11;40.49;45.95;;
67314;Laerm;57663;51.436;5.978;2023-02-12T18:30:00;41.08;39.50;42.97;;
67314;Laerm;57663;51.436;5.978;2023-02-12T18:30:11;41.80;40.11;43.74;;
67314;Laerm;57663;51.436;5.978;2023-02-12T18:30:21;66.77;42.11;73.60;;
67314;Laerm;57663;51.436;5.978;2023-02-12T18:30:32;71.08;68.25;74.58;;
67314;Laerm;57663;51.436;5.978;2023-02-12T18:30:42;70.84;65.87;74.66;;
67314;Laerm;57663;51.436;5.978;2023-02-12T18:30:56;56.18;40.58;67.13;;
67314;Laerm;57663;51.436;5.978;2023-02-12T18:31:06;42.17;40.23;48.71;;
67314;Laerm;57663;51.436;5.978;2023-02-12T18:31:17;41.50;39.42;48.88;;
67314;Laerm;57663;51.436;5.978;2023-02-12T18:31:27;43.69;39.76;61.90;;
67314;Laerm;57663;51.436;5.978;2023-02-12T18:31:38;41.91;40.20;44.58;;
67314;Laerm;57663;51.436;5.978;2023-02-12T18:31:48;43.29;40.25;56.35;;
67314;Laerm;57663;51.436;5.978;2023-02-12T18:31:58;41.42;39.34;48.88;;
67314;Laerm;57663;51.436;5.978;2023-02-12T18:32:09;41.04;38.59;51.58;;
67314;Laerm;57663;51.436;5.978;2023-02-12T18:32:23;40.59;38.75;43.19;;
67314;Laerm;57663;51.436;5.978;2023-02-12T18:32:34;40.32;38.96;42.31;;
67314;Laerm;57663;51.436;5.978;2023-02-12T18:32:45;40.18;38.46;41.63;;
67314;Laerm;57663;51.436;5.978;2023-02-12T18:32:56;39.88;38.39;41.17;;
67314;Laerm;57663;51.436;5.978;2023-02-12T18:33:08;43.34;39.00;48.51;;
67314;Laerm;57663;51.436;5.978;2023-02-12T18:33:18;41.62;39.34;45.35;;
67314;Laerm;57663;51.436;5.978;2023-02-12T18:33:29;44.14;40.01;48.27;;
67314;Laerm;57663;51.436;5.978;2023-02-12T18:33:39;41.31;39.84;42.58;;
67314;Laerm;57663;51.436;5.978;2023-02-12T18:33:50;41.54;39.74;43.39;;
67314;Laerm;57663;51.436;5.978;2023-02-12T18:34:00;41.85;40.08;44.48;;
67314;Laerm;57663;51.436;5.978;2023-02-12T18:34:10;40.82;39.24;42.50;;
67314;Laerm;57663;51.436;5.978;2023-02-12T18:34:20;39.49;37.84;40.98;;
67314;Laerm;57663;51.436;5.978;2023-02-12T18:34:31;39.71;37.97;41.31;;
67314;Laerm;57663;51.436;5.978;2023-02-12T18:34:42;39.73;37.94;41.22;;
67314;Laerm;57663;51.436;5.978;2023-02-12T18:34:52;39.88;38.35;41.73;;
67314;Laerm;57663;51.436;5.978;2023-02-12T18:35:03;42.63;39.49;47.91;;
67314;Laerm;57663;51.436;5.978;2023-02-12T18:35:14;52.07;39.30;61.99;;
67314;Laerm;57663;51.436;5.978;2023-02-12T18:35:24;41.27;39.75;43.18;;
67314;Laerm;57663;51.436;5.978;2023-02-12T18:35:35;40.12;38.39;42.11;;
67314;Laerm;57663;51.436;5.978;2023-02-12T18:35:55;40.45;38.68;42.41;;
67314;Laerm;57663;51.436;5.978;2023-02-12T18:36:07;39.95;38.10;42.78;;
67314;Laerm;57663;51.436;5.978;2023-02-12T18:36:18;39.59;38.14;40.94;;
67314;Laerm;57663;51.436;5.978;2023-02-12T18:36:29;39.83;38.06;41.78;;
67314;Laerm;57663;51.436;5.978;2023-02-12T18:36:39;40.12;38.55;41.84;;
67314;Laerm;57663;51.436;5.978;2023-02-12T18:36:50;41.17;39.45;42.55;;
67314;Laerm;57663;51.436;5.978;2023-02-12T18:37:00;41.02;39.52;42.46;;
67314;Laerm;57663;51.436;5.978;2023-02-12T18:37:11;41.40;39.89;42.64;;
67314;Laerm;57663;51.436;5.978;2023-02-12T18:37:22;41.79;40.22;43.27;;
67314;Laerm;57663;51.436;5.978;2023-02-12T18:37:32;41.97;40.03;43.36;;
67314;Laerm;57663;51.436;5.978;2023-02-12T18:37:42;40.61;38.81;42.10;;
67314;Laerm;57663;51.436;5.978;2023-02-12T18:37:53;39.49;37.70;41.24;;
67314;Laerm;57663;51.436;5.978;2023-02-12T18:38:03;39.50;37.57;41.08;;
67314;Laerm;57663;51.436;5.978;2023-02-12T18:38:13;39.94;38.44;41.72;;
67314;Laerm;57663;51.436;5.978;2023-02-12T18:38:24;40.36;38.53;42.83;;
67314;Laerm;57663;51.436;5.978;2023-02-12T18:38:35;42.82;39.49;48.20;;
67314;Laerm;57663;51.436;5.978;2023-02-12T18:38:46;40.55;38.48;42.32;;
67314;Laerm;57663;51.436;5.978;2023-02-12T18:38:57;43.58;38.86;48.29;;
67314;Laerm;57663;51.436;5.978;2023-02-12T18:39:09;39.87;37.79;41.59;;
67314;Laerm;57663;51.436;5.978;2023-02-12T18:39:20;39.79;38.29;41.85;;
67314;Laerm;57663;51.436;5.978;2023-02-12T18:39:30;39.64;37.69;40.97;;
67314;Laerm;57663;51.436;5.978;2023-02-12T18:39:41;39.63;38.13;40.87;;
67314;Laerm;57663;51.436;5.978;2023-02-12T18:39:51;39.95;38.67;41.53;;
67314;Laerm;57663;51.436;5.978;2023-02-12T18:40:01;40.26;38.56;41.96;;
67314;Laerm;57663;51.436;5.978;2023-02-12T18:40:12;40.80;39.25;43.43;;
67314;Laerm;57663;51.436;5.978;2023-02-12T18:40:23;41.00;39.32;42.54;;
67314;Laerm;57663;51.436;5.978;2023-02-12T18:40:37;41.15;39.57;42.87;;
67314;Laerm;57663;51.436;5.978;2023-02-12T18:40:48;41.55;39.86;42.95;;
67314;Laerm;57663;51.436;5.978;2023-02-12T18:40:58;41.44;39.55;43.30;;
67314;Laerm;57663;51.436;5.978;2023-02-12T18:41:12;49.18;39.43;57.79;;
67314;Laerm;57663;51.436;5.978;2023-02-12T18:41:24;47.19;42.00;59.02;;
67314;Laerm;57663;51.436;5.978;2023-02-12T18:41:35;42.56;38.77;50.88;;
67314;Laerm;57663;51.436;5.978;2023-02-12T18:41:45;40.54;38.76;42.15;;
67314;Laerm;57663;51.436;5.978;2023-02-12T18:41:56;40.60;38.90;42.05;;
67314;Laerm;57663;51.436;5.978;2023-02-12T18:42:07;40.49;39.03;42.37;;
67314;Laerm;57663;51.436;5.978;2023-02-12T18:42:17;40.07;38.41;41.55;;
67314;Laerm;57663;51.436;5.978;2023-02-12T18:42:28;39.98;38.29;41.41;;
67314;Laerm;57663;51.436;5.978;2023-02-12T18:42:40;39.87;37.85;41.44;;
67314;Laerm;57663;51.436;5.978;2023-02-12T18:42:51;39.79;38.24;41.32;;
67314;Laerm;57663;51.436;5.978;2023-02-12T18:43:01;39.62;38.05;40.94;;
67314;Laerm;57663;51.436;5.978;2023-02-12T18:43:11;39.67;38.08;41.07;;
67314;Laerm;57663;51.436;5.978;2023-02-12T18:43:21;40.12;38.54;41.65;;
67314;Laerm;57663;51.436;5.978;2023-02-12T18:43:32;40.24;38.42;41.54;;
67314;Laerm;57663;51.436;5.978;2023-02-12T18:43:45;40.75;38.74;42.40;;
67314;Laerm;57663;51.436;5.978;2023-02-12T18:43:56;40.88;39.42;42.37;;
67314;Laerm;57663;51.436;5.978;2023-02-12T18:44:06;41.33;39.40;42.69;;
67314;Laerm;57663;51.436;5.978;2023-02-12T18:44:17;41.46;40.01;42.86;;
67314;Laerm;57663;51.436;5.978;2023-02-12T18:44:27;40.83;38.77;43.63;;
67314;Laerm;57663;51.436;5.978;2023-02-12T18:44:37;39.53;37.79;42.29;;
67314;Laerm;57663;51.436;5.978;2023-02-12T18:44:49;38.89;37.62;40.30;;
67314;Laerm;57663;51.436;5.978;2023-02-12T18:45:00;39.89;37.47;41.90;;
67314;Laerm;57663;51.436;5.978;2023-02-12T18:45:10;41.60;38.97;46.92;;
67314;Laerm;57663;51.436;5.978;2023-02-12T18:45:20;41.03;38.98;47.03;;
67314;Laerm;57663;51.436;5.978;2023-02-12T18:45:31;50.70;39.58;61.00;;
67314;Laerm;57663;51.436;5.978;2023-02-12T18:45:41;69.31;59.72;73.21;;
67314;Laerm;57663;51.436;5.978;2023-02-12T18:45:51;71.10;67.74;76.89;;
67314;Laerm;57663;51.436;5.978;2023-02-12T18:46:09;69.61;42.25;79.39;;
67314;Laerm;57663;51.436;5.978;2023-02-12T18:46:20;41.73;40.02;43.74;;
67314;Laerm;57663;51.436;5.978;2023-02-12T18:46:31;40.77;38.75;42.46;;
67314;Laerm;57663;51.436;5.978;2023-02-12T18:46:41;40.44;38.68;42.29;;
67314;Laerm;57663;51.436;5.978;2023-02-12T18:46:51;40.39;38.67;41.86;;
67314;Laerm;57663;51.436;5.978;2023-02-12T18:47:02;40.53;38.92;41.83;;
67314;Laerm;57663;51.436;5.978;2023-02-12T18:47:12;38.99;36.48;41.38;;
67314;Laerm;57663;51.436;5.978;2023-02-12T18:47:22;38.92;37.19;42.27;;
67314;Laerm;57663;51.436;5.978;2023-02-12T18:47:32;39.03;36.91;42.51;;
67314;Laerm;57663;51.436;5.978;2023-02-12T18:47:43;39.78;38.03;41.68;;
67314;Laerm;57663;51.436;5.978;2023-02-12T18:47:54;69.82;39.43;77.45;;
67314;Laerm;57663;51.436;5.978;2023-02-12T18:48:04;60.03;38.49;73.52;;
67314;Laerm;57663;51.436;5.978;2023-02-12T18:48:18;63.46;38.23;75.83;;
67314;Laerm;57663;51.436;5.978;2023-02-12T18:48:28;67.60;38.45;77.31;;
67314;Laerm;57663;51.436;5.978;2023-02-12T18:48:39;39.40;37.77;41.23;;
67314;Laerm;57663;51.436;5.978;2023-02-12T18:48:49;38.74;36.69;40.54;;
67314;Laerm;57663;51.436;5.978;2023-02-12T18:49:00;38.22;36.62;40.77;;
67314;Laerm;57663;51.436;5.978;2023-02-12T18:49:11;39.11;35.91;57.07;;
67314;Laerm;57663;51.436;5.978;2023-02-12T18:49:21;38.55;36.59;41.20;;
67314;Laerm;57663;51.436;5.978;2023-02-12T18:49:31;46.21;37.91;55.56;;
67314;Laerm;57663;51.436;5.978;2023-02-12T18:49:42;41.95;36.82;49.14;;
67314;Laerm;57663;51.436;5.978;2023-02-12T18:49:52;40.60;36.16;54.96;;
67314;Laerm;57663;51.436;5.978;2023-02-12T18:50:02;37.80;36.20;43.71;;
67314;Laerm;57663;51.436;5.978;2023-02-12T18:50:13;40.32;35.88;56.04;;
67314;Laerm;57663;51.436;5.978;2023-02-12T18:50:23;39.02;36.98;41.89;;
67314;Laerm;57663;51.436;5.978;2023-02-12T18:50:34;39.38;37.08;47.73;;
67314;Laerm;57663;51.436;5.978;2023-02-12T18:50:45;38.87;37.12;40.66;;
67314;Laerm;57663;51.436;5.978;2023-02-12T18:51:01;39.93;38.16;42.44;;
67314;Laerm;57663;51.436;5.978;2023-02-12T18:51:14;63.32;38.75;77.52;;
67314;Laerm;57663;51.436;5.978;2023-02-12T18:51:25;78.82;73.56;86.33;;
67314;Laerm;57663;51.436;5.978;2023-02-12T18:51:35;75.06;62.93;80.42;;
67314;Laerm;57663;51.436;5.978;2023-02-12T18:51:48;54.03;39.51;64.12;;
67314;Laerm;57663;51.436;5.978;2023-02-12T18:51:59;38.93;36.62;43.85;;
67314;Laerm;57663;51.436;5.978;2023-02-12T18:52:11;38.02;36.06;40.82;;
67314;Laerm;57663;51.436;5.978;2023-02-12T18:52:21;40.08;37.46;43.95;;
67314;Laerm;57663;51.436;5.978;2023-02-12T18:52:31;50.24;41.85;59.83;;
67314;Laerm;57663;51.436;5.978;2023-02-12T18:52:42;39.26;36.93;44.12;;
67314;Laerm;57663;51.436;5.978;2023-02-12T18:52:52;38.61;37.01;40.90;;
67314;Laerm;57663;51.436;5.978;2023-02-12T18:53:02;37.97;36.47;39.88;;
67314;Laerm;57663;51.436;5.978;2023-02-12T18:53:13;38.81;36.65;42.93;;
67314;Laerm;57663;51.436;5.978;2023-02-12T18:53:23;42.90;37.25;47.17;;
67314;Laerm;57663;51.436;5.978;2023-02-12T18:53:33;39.74;37.31;43.77;;
67314;Laerm;57663;51.436;5.978;2023-02-12T18:53:44;38.29;36.63;39.85;;
67314;Laerm;57663;51.436;5.978;2023-02-12T18:53:56;50.20;37.54;61.74;;
67314;Laerm;57663;51.436;5.978;2023-02-12T18:54:07;74.56;60.79;82.58;;
67314;Laerm;57663;51.436;5.978;2023-02-12T18:54:19;67.37;43.88;76.23;;
67314;Laerm;57663;51.436;5.978;2023-02-12T18:54:29;42.35;39.49;45.49;;
67314;Laerm;57663;51.436;5.978;2023-02-12T18:54:40;40.39;38.57;42.06;;
67314;Laerm;57663;51.436;5.978;2023-02-12T18:54:50;39.62;37.80;41.21;;
67314;Laerm;57663;51.436;5.978;2023-02-12T18:55:05;38.65;36.89;40.19;;
67314;Laerm;57663;51.436;5.978;2023-02-12T18:55:16;38.50;36.39;46.15;;
67314;Laerm;57663;51.436;5.978;2023-02-12T18:55:27;37.86;36.00;40.18;;
67314;Laerm;57663;51.436;5.978;2023-02-12T18:55:37;37.79;36.55;39.25;;
67314;Laerm;57663;51.436;5.978;2023-02-12T18:55:48;37.60;35.99;39.24;;
67314;Laerm;57663;51.436;5.978;2023-02-12T18:56:02;37.93;36.15;42.37;;
67314;Laerm;57663;51.436;5.978;2023-02-12T18:56:12;37.64;36.11;40.99;;
67314;Laerm;57663;51.436;5.978;2023-02-12T18:56:23;37.39;36.17;40.02;;
67314;Laerm;57663;51.436;5.978;2023-02-12T18:56:34;38.47;36.61;40.68;;
67314;Laerm;57663;51.436;5.978;2023-02-12T18:56:45;39.64;37.09;42.44;;
67314;Laerm;57663;51.436;5.978;2023-02-12T18:56:57;40.92;36.96;44.31;;
67314;Laerm;57663;51.436;5.978;2023-02-12T18:57:07;38.86;36.59;41.42;;
67314;Laerm;57663;51.436;5.978;2023-02-12T18:57:18;38.89;36.64;42.75;;
67314;Laerm;57663;51.436;5.978;2023-02-12T18:57:28;40.48;37.44;43.54;;
67314;Laerm;57663;51.436;5.978;2023-02-12T18:57:40;38.03;36.08;43.66;;
67314;Laerm;57663;51.436;5.978;2023-02-12T18:57:50;37.95;36.24;39.75;;
67314;Laerm;57663;51.436;5.978;2023-02-12T18:58:01;37.34;36.08;38.82;;
67314;Laerm;57663;51.436;5.978;2023-02-12T18:58:12;37.29;35.66;38.56;;
67314;Laerm;57663;51.436;5.978;2023-02-12T18:58:22;37.25;35.95;39.06;;
67314;Laerm;57663;51.436;5.978;2023-02-12T18:58:33;37.32;35.70;39.14;;
67314;Laerm;57663;51.436;5.978;2023-02-12T18:58:43;37.22;35.82;38.63;;
67314;Laerm;57663;51.436;5.978;2023-02-12T18:58:54;37.55;35.87;44.04;;
67314;Laerm;57663;51.436;5.978;2023-02-12T18:59:05;37.38;35.91;40.56;;
67314;Laerm;57663;51.436;5.978;2023-02-12T18:59:16;37.34;35.94;39.27;;
67314;Laerm;57663;51.436;5.978;2023-02-12T18:59:27;37.53;35.83;40.09;;
67314;Laerm;57663;51.436;5.978;2023-02-12T18:59:37;37.58;35.92;39.86;;
67314;Laerm;57663;51.436;5.978;2023-02-12T18:59:48;37.90;36.16;42.33;;
67314;Laerm;57663;51.436;5.978;2023-02-12T18:59:58;37.78;36.12;40.55;;
67314;Laerm;57663;51.436;5.978;2023-02-12T19:00:08;41.23;36.58;50.48;;
67314;Laerm;57663;51.436;5.978;2023-02-12T19:00:19;43.84;36.72;50.15;;
67314;Laerm;57663;51.436;5.978;2023-02-12T19:00:29;42.22;36.21;49.98;;
67314;Laerm;57663;51.436;5.978;2023-02-12T19:00:39;37.96;36.04;39.29;;
67314;Laerm;57663;51.436;5.978;2023-02-12T19:00:50;37.53;35.89;38.85;;
67314;Laerm;57663;51.436;5.978;2023-02-12T19:01:00;37.64;36.23;39.33;;
67314;Laerm;57663;51.436;5.978;2023-02-12T19:01:15;38.13;36.42;39.62;;
67314;Laerm;57663;51.436;5.978;2023-02-12T19:01:26;41.75;37.83;47.15;;
67314;Laerm;57663;51.436;5.978;2023-02-12T19:01:36;47.23;37.60;54.63;;
67314;Laerm;57663;51.436;5.978;2023-02-12T19:01:47;39.10;36.49;42.20;;
67314;Laerm;57663;51.436;5.978;2023-02-12T19:02:01;37.63;36.23;39.89;;
67314;Laerm;57663;51.436;5.978;2023-02-12T19:02:11;37.03;35.66;38.57;;
67314;Laerm;57663;51.436;5.978;2023-02-12T19:02:22;37.16;35.65;38.79;;
67314;Laerm;57663;51.436;5.978;2023-02-12T19:02:32;37.15;35.59;38.35;;
67314;Laerm;57663;51.436;5.978;2023-02-12T19:02:43;37.38;36.01;38.98;;
67314;Laerm;57663;51.436;5.978;2023-02-12T19:02:53;37.47;36.05;39.92;;
67314;Laerm;57663;51.436;5.978;2023-02-12T19:03:03;37.32;35.86;39.14;;
67314;Laerm;57663;51.436;5.978;2023-02-12T19:03:14;37.27;36.00;38.38;;
67314;Laerm;57663;51.436;5.978;2023-02-12T19:03:24;37.68;36.18;39.55;;
67314;Laerm;57663;51.436;5.978;2023-02-12T19:03:35;37.70;36.10;39.45;;
67314;Laerm;57663;51.436;5.978;2023-02-12T19:03:46;37.40;36.33;38.61;;
67314;Laerm;57663;51.436;5.978;2023-02-12T19:03:59;37.32;35.46;39.03;;
67314;Laerm;57663;51.436;5.978;2023-02-12T19:04:10;37.24;35.89;38.63;;
67314;Laerm;57663;51.436;5.978;2023-02-12T19:04:21;39.00;36.08;46.08;;
67314;Laerm;57663;51.436;5.978;2023-02-12T19:04:32;37.55;35.82;44.46;;
67314;Laerm;57663;51.436;5.978;2023-02-12T19:04:43;37.38;35.79;39.25;;
67314;Laerm;57663;51.436;5.978;2023-02-12T19:04:53;37.46;36.06;39.47;;
67314;Laerm;57663;51.436;5.978;2023-02-12T19:05:03;41.76;36.57;49.13;;
67314;Laerm;57663;51.436;5.978;2023-02-12T19:05:14;49.94;39.67;56.28;;
67314;Laerm;57663;51.436;5.978;2023-02-12T19:05:24;38.66;36.11;42.95;;
67314;Laerm;57663;51.436;5.978;2023-02-12T19:05:35;37.84;36.54;39.70;;
67314;Laerm;57663;51.436;5.978;2023-02-12T19:05:45;37.35;35.88;39.16;;
67314;Laerm;57663;51.436;5.978;2023-02-12T19:06:01;37.53;35.81;39.31;;
67314;Laerm;57663;51.436;5.978;2023-02-12T19:06:12;40.93;36.93;45.63;;
67314;Laerm;57663;51.436;5.978;2023-02-12T19:06:22;37.69;36.36;40.31;;
67314;Laerm;57663;51.436;5.978;2023-02-12T19:06:36;37.74;36.04;46.29;;
67314;Laerm;57663;51.436;5.978;2023-02-12T19:06:47;38.13;35.98;46.08;;
67314;Laerm;57663;51.436;5.978;2023-02-12T19:06:58;39.76;36.23;46.40;;
67314;Laerm;57663;51.436;5.978;2023-02-12T19:07:08;38.03;36.08;44.68;;
67314;Laerm;57663;51.436;5.978;2023-02-12T19:07:18;37.82;35.68;45.16;;
67314;Laerm;57663;51.436;5.978;2023-02-12T19:07:28;38.91;35.97;51.67;;
67314;Laerm;57663;51.436;5.978;2023-02-12T19:07:39;37.52;36.10;38.99;;
67314;Laerm;57663;51.436;5.978;2023-02-12T19:07:49;37.68;36.26;39.20;;
67314;Laerm;57663;51.436;5.978;2023-02-12T19:07:59;37.49;36.16;38.73;;
67314;Laerm;57663;51.436;5.978;2023-02-12T19:08:10;37.52;36.11;39.39;;
67314;Laerm;57663;51.436;5.978;2023-02-12T19:08:20;37.76;36.12;44.78;;
67314;Laerm;57663;51.436;5.978;2023-02-12T19:08:30;37.63;36.15;38.96;;
67314;Laerm;57663;51.436;5.978;2023-02-12T19:08:41;37.45;35.89;39.23;;
67314;Laerm;57663;51.436;5.978;2023-02-12T19:08:54;37.68;36.01;44.74;;
67314;Laerm;57663;51.436;5.978;2023-02-12T19:09:05;37.87;35.90;40.73;;
67314;Laerm;57663;51.436;5.978;2023-02-12T19:09:16;40.31;37.19;42.52;;
67314;Laerm;57663;51.436;5.978;2023-02-12T19:09:27;39.22;36.34;45.37;;
67314;Laerm;57663;51.436;5.978;2023-02-12T19:09:37;40.39;36.71;50.66;;
67314;Laerm;57663;51.436;5.978;2023-02-12T19:09:48;39.63;37.07;48.74;;
67314;Laerm;57663;51.436;5.978;2023-02-12T19:09:59;49.72;37.64;60.56;;
67314;Laerm;57663;51.436;5.978;2023-02-12T19:10:10;44.42;37.65;55.99;;
67314;Laerm;57663;51.436;5.978;2023-02-12T19:10:20;45.74;36.80;55.73;;
67314;Laerm;57663;51.436;5.978;2023-02-12T19:10:31;53.32;39.17;65.82;;
67314;Laerm;57663;51.436;5.978;2023-02-12T19:10:41;55.98;46.74;64.95;;
67314;Laerm;57663;51.436;5.978;2023-02-12T19:10:52;53.91;39.75;65.65;;
67314;Laerm;57663;51.436;5.978;2023-02-12T19:11:06;45.25;37.01;62.46;;
67314;Laerm;57663;51.436;5.978;2023-02-12T19:11:16;44.30;36.80;63.23;;
67314;Laerm;57663;51.436;5.978;2023-02-12T19:11:27;37.83;36.40;39.43;;
67314;Laerm;57663;51.436;5.978;2023-02-12T19:11:37;37.90;36.59;39.56;;
67314;Laerm;57663;51.436;5.978;2023-02-12T19:11:48;47.04;37.00;58.85;;
67314;Laerm;57663;51.436;5.978;2023-02-12T19:11:59;47.58;37.38;55.89;;
67314;Laerm;57663;51.436;5.978;2023-02-12T19:12:09;38.13;36.83;39.62;;
67314;Laerm;57663;51.436;5.978;2023-02-12T19:12:19;38.80;36.83;40.89;;
67314;Laerm;57663;51.436;5.978;2023-02-12T19:12:30;39.01;36.94;42.03;;
67314;Laerm;57663;51.436;5.978;2023-02-12T19:12:40;65.77;40.01;72.96;;
67314;Laerm;57663;51.436;5.978;2023-02-12T19:12:50;52.54;37.62;64.45;;
67314;Laerm;57663;51.436;5.978;2023-02-12T19:13:01;38.47;36.98;40.06;;
67314;Laerm;57663;51.436;5.978;2023-02-12T19:13:11;37.78;36.19;39.19;;
67314;Laerm;57663;51.436;5.978;2023-02-12T19:13:21;37.58;36.20;39.21;;
67314;Laerm;57663;51.436;5.978;2023-02-12T19:13:32;40.38;35.72;60.37;;
67314;Laerm;57663;51.436;5.978;2023-02-12T19:13:42;37.59;35.98;39.47;;
67314;Laerm;57663;51.436;5.978;2023-02-12T19:13:53;38.12;36.09;45.43;;
67314;Laerm;57663;51.436;5.978;2023-02-12T19:14:03;37.59;36.20;40.63;;
67314;Laerm;57663;51.436;5.978;2023-02-12T19:14:14;37.62;35.86;39.24;;
67314;Laerm;57663;51.436;5.978;2023-02-12T19:14:25;37.88;35.70;40.33;;
67314;Laerm;57663;51.436;5.978;2023-02-12T19:14:35;37.45;36.08;42.89;;
67314;Laerm;57663;51.436;5.978;2023-02-12T19:14:46;37.22;35.52;38.54;;
67314;Laerm;57663;51.436;5.978;2023-02-12T19:14:56;37.43;35.37;42.23;;
67314;Laerm;57663;51.436;5.978;2023-02-12T19:15:06;37.96;36.10;41.93;;
67314;Laerm;57663;51.436;5.978;2023-02-12T19:15:17;40.26;36.76;46.39;;
67314;Laerm;57663;51.436;5.978;2023-02-12T19:15:28;37.68;35.79;39.23;;
67314;Laerm;57663;51.436;5.978;2023-02-12T19:15:38;39.44;36.52;42.50;;
67314;Laerm;57663;51.436;5.978;2023-02-12T19:15:49;51.69;40.67;62.48;;
67314;Laerm;57663;51.436;5.978;2023-02-12T19:16:03;39.76;36.86;43.59;;
67314;Laerm;57663;51.436;5.978;2023-02-12T19:16:15;38.22;36.09;45.33;;
67314;Laerm;57663;51.436;5.978;2023-02-12T19:16:25;42.46;36.59;47.90;;
67314;Laerm;57663;51.436;5.978;2023-02-12T19:16:36;37.84;36.38;39.69;;
67314;Laerm;57663;51.436;5.978;2023-02-12T19:16:46;39.20;36.98;43.24;;
67314;Laerm;57663;51.436;5.978;2023-02-12T19:16:57;41.26;37.71;44.28;;
67314;Laerm;57663;51.436;5.978;2023-02-12T19:17:07;40.62;37.18;43.61;;
67314;Laerm;57663;51.436;5.978;2023-02-12T19:17:17;38.83;37.07;41.54;;
67314;Laerm;57663;51.436;5.978;2023-02-12T19:17:28;38.40;36.62;40.51;;
67314;Laerm;57663;51.436;5.978;2023-02-12T19:17:38;38.07;36.00;39.61;;
67314;Laerm;57663;51.436;5.978;2023-02-12T19:17:48;37.79;36.38;40.25;;
67314;Laerm;57663;51.436;5.978;2023-02-12T19:17:59;37.52;35.96;38.95;;
67314;Laerm;57663;51.436;5.978;2023-02-12T19:18:09;37.87;36.46;39.71;;
67314;Laerm;57663;51.436;5.978;2023-02-12T19:18:19;39.47;37.00;41.96;;
67314;Laerm;57663;51.436;5.978;2023-02-12T19:18:30;48.12;41.18;55.74;;
67314;Laerm;57663;51.436;5.978;2023-02-12T19:18:40;40.28;38.02;43.14;;
67314;Laerm;57663;51.436;5.978;2023-02-12T19:18:52;72.98;39.51;83.49;;
67314;Laerm;57663;51.436;5.978;2023-02-12T19:19:03;46.11;37.08;56.62;;
67314;Laerm;57663;51.436;5.978;2023-02-12T19:19:14;39.64;37.09;56.77;;
67314;Laerm;57663;51.436;5.978;2023-02-12T19:19:25;38.32;37.06;39.91;;
67314;Laerm;57663;51.436;5.978;2023-02-12T19:19:36;39.04;36.95;40.86;;
67314;Laerm;57663;51.436;5.978;2023-02-12T19:19:49;48.19;39.53;57.44;;
67314;Laerm;57663;51.436;5.978;2023-02-12T19:20:00;66.45;57.15;71.78;;
67314;Laerm;57663;51.436;5.978;2023-02-12T19:20:10;59.81;38.88;67.40;;
67314;Laerm;57663;51.436;5.978;2023-02-12T19:20:22;51.26;38.89;63.26;;
67314;Laerm;57663;51.436;5.978;2023-02-12T19:20:32;40.46;37.07;45.64;;
67314;Laerm;57663;51.436;5.978;2023-02-12T19:20:43;37.84;36.10;39.24;;
67314;Laerm;57663;51.436;5.978;2023-02-12T19:20:53;37.61;35.97;38.84;;
67314;Laerm;57663;51.436;5.978;2023-02-12T19:21:04;37.77;36.46;39.54;;
67314;Laerm;57663;51.436;5.978;2023-02-12T19:21:15;40.18;37.25;42.59;;
67314;Laerm;57663;51.436;5.978;2023-02-12T19:21:26;38.10;36.29;40.30;;
67314;Laerm;57663;51.436;5.978;2023-02-12T19:21:36;40.39;36.18;59.11;;
67314;Laerm;57663;51.436;5.978;2023-02-12T19:21:48;37.58;35.78;39.13;;